Time;durP1;ratioP1;P1;durP2;ratioP2;P2;SDS_P1;SDS_P2;PMS_P1;PMS_P2;Temp;Humidity;BMP_temperature;BMP_pressure;BME280_temperature;BME280_humidity;BME280_pressure;Samples;Min_cycle;Max_cycle;Signal;HPM_P1;HPM_P2
2022/04/05 00:01:22;;;;;;;2.67;1.58;;;12.80;99.90;;;;;;5036386;28;20045;-68
2022/04/05 00:03:49;;;;;;;2.47;1.90;;;12.80;99.90;;;;;;5050295;28;20057;-66
2022/04/05 00:06:16;;;;;;;2.35;1.52;;;12.80;99.90;;;;;;5039551;28;20060;-67
2022/04/05 00:08:43;;;;;;;1.52;1.27;;;12.80;99.90;;;;;;5027237;28;20052;-66
2022/04/05 00:11:10;;;;;;;2.58;1.80;;;12.80;99.90;;;;;;5036537;28;20049;-66
2022/04/05 00:13:38;;;;;;;4.07;1.42;;;12.80;99.90;;;;;;5023305;28;20056;-66
2022/04/05 00:16:05;;;;;;;1.75;1.25;;;12.70;99.90;;;;;;5036593;28;20113;-68
2022/04/05 00:18:32;;;;;;;1.90;1.35;;;12.70;99.90;;;;;;5029443;28;20053;-65
2022/04/05 00:20:59;;;;;;;1.88;1.02;;;12.70;99.90;;;;;;5040182;28;20041;-65
2022/04/05 00:23:26;;;;;;;1.40;1.20;;;12.70;99.90;;;;;;5028618;28;20065;-66
2022/04/05 00:25:53;;;;;;;2.67;1.30;;;12.70;99.90;;;;;;5030106;28;20103;-66
2022/04/05 00:28:20;;;;;;;2.00;1.13;;;12.60;99.90;;;;;;5037905;28;20508;-66
2022/04/05 00:30:47;;;;;;;1.25;1.00;;;12.70;99.90;;;;;;5064221;28;20049;-65
2022/04/05 00:33:14;;;;;;;3.13;1.30;;;12.60;99.90;;;;;;5013287;28;20536;-66
2022/04/05 00:35:41;;;;;;;1.60;1.20;;;12.60;99.90;;;;;;5030101;28;20056;-66
2022/04/05 00:38:08;;;;;;;2.80;1.60;;;12.60;99.90;;;;;;5041805;28;20484;-66
2022/04/05 00:40:37;;;;;;;2.47;1.42;;;12.60;99.90;;;;;;5049477;28;20052;-68
2022/04/05 00:43:05;;;;;;;2.53;1.30;;;12.50;99.90;;;;;;5021963;28;20044;-66
2022/04/05 00:45:35;;;;;;;1.45;1.00;;;12.50;99.90;;;;;;5030145;28;20044;-66
2022/04/05 00:48:04;;;;;;;3.05;1.15;;;12.50;99.90;;;;;;5033724;28;20505;-66
2022/04/05 00:50:35;;;;;;;2.17;1.02;;;12.40;99.90;;;;;;5034746;28;20090;-66
2022/04/05 00:53:03;;;;;;;1.92;1.17;;;12.40;99.90;;;;;;5016967;28;20053;-65
2022/04/05 00:55:30;;;;;;;1.43;1.10;;;12.30;99.90;;;;;;5046556;28;20044;-67
2022/04/05 00:57:57;;;;;;;2.17;1.50;;;12.30;99.90;;;;;;5053120;28;20548;-66
2022/04/05 01:00:24;;;;;;;1.25;1.05;;;12.30;99.90;;;;;;5020881;28;20055;-66
2022/04/05 01:02:51;;;;;;;7.05;1.95;;;12.20;99.90;;;;;;5052694;28;20037;-65
2022/04/05 01:05:18;;;;;;;1.13;1.02;;;12.20;99.90;;;;;;5041390;28;20048;-66
2022/04/05 01:07:46;;;;;;;2.63;1.30;;;12.20;99.90;;;;;;5034741;28;20049;-66
2022/04/05 01:10:13;;;;;;;2.10;1.23;;;12.10;99.90;;;;;;5029598;28;20075;-66
2022/04/05 01:12:41;;;;;;;1.50;1.00;;;12.10;99.90;;;;;;5012590;28;20060;-66
2022/04/05 01:15:09;;;;;;;1.42;0.90;;;12.10;99.90;;;;;;5023830;28;20045;-66
2022/04/05 01:17:35;;;;;;;2.85;1.50;;;12.10;99.90;;;;;;5033984;28;20061;-67
2022/04/05 01:20:06;;;;;;;1.10;0.80;;;12.10;99.90;;;;;;5034163;28;20045;-66
2022/04/05 01:22:33;;;;;;;1.10;0.90;;;12.10;99.90;;;;;;5051922;28;20447;-66
2022/04/05 01:25:00;;;;;;;1.40;1.00;;;12.10;99.90;;;;;;5034071;28;20052;-66
2022/04/05 01:27:27;;;;;;;1.85;1.23;;;12.10;99.90;;;;;;5052996;28;20489;-66
2022/04/05 01:29:55;;;;;;;2.92;1.20;;;12.10;99.90;;;;;;5052264;28;20045;-67
2022/04/05 01:32:22;;;;;;;2.28;1.35;;;12.00;99.90;;;;;;5051164;28;20439;-66
2022/04/05 01:34:49;;;;;;;1.73;1.10;;;12.00;99.90;;;;;;5037151;28;20072;-66
2022/04/05 01:37:16;;;;;;;2.15;1.38;;;12.00;99.90;;;;;;5043794;28;20053;-67
2022/04/05 01:39:43;;;;;;;2.38;1.42;;;11.90;99.90;;;;;;5050949;28;20053;-66
2022/04/05 01:42:13;;;;;;;2.28;1.40;;;11.80;99.90;;;;;;5052607;28;20053;-66
2022/04/05 01:44:41;;;;;;;2.30;1.75;;;11.80;99.90;;;;;;5010433;28;20045;-66
2022/04/05 01:47:10;;;;;;;2.72;1.70;;;11.80;99.90;;;;;;5035269;28;20045;-66
2022/04/05 01:49:37;;;;;;;4.43;2.05;;;11.80;99.90;;;;;;5031717;28;20049;-67
2022/04/05 01:52:05;;;;;;;3.47;1.70;;;11.80;99.90;;;;;;5038202;28;20045;-66
2022/04/05 01:54:32;;;;;;;3.55;1.70;;;11.80;99.90;;;;;;5033920;28;20045;-66
2022/04/05 01:56:59;;;;;;;3.20;1.90;;;11.80;99.90;;;;;;5034009;28;20504;-66
2022/04/05 01:59:27;;;;;;;4.03;2.00;;;11.80;99.90;;;;;;5037075;28;20045;-66
2022/04/05 02:01:55;;;;;;;4.43;2.27;;;11.80;99.90;;;;;;5052028;28;20053;-66
2022/04/05 02:04:22;;;;;;;3.95;1.85;;;11.80;99.90;;;;;;5052731;28;20049;-66
2022/04/05 02:06:49;;;;;;;2.67;2.03;;;11.80;99.90;;;;;;5022362;28;20504;-66
2022/04/05 02:09:16;;;;;;;2.58;1.95;;;11.80;99.90;;;;;;5034805;28;20088;-72
2022/04/05 02:11:44;;;;;;;31.45;26.75;;;11.70;99.90;;;;;;5017073;28;20056;-68
2022/04/05 02:14:11;;;;;;;149.93;135.02;;;11.80;99.90;;;;;;5026615;28;20045;-68
2022/04/05 02:16:38;;;;;;;19.20;17.25;;;11.80;99.90;;;;;;5034917;28;20057;-66
2022/04/05 02:19:05;;;;;;;5.72;4.25;;;11.80;99.90;;;;;;5035552;28;20045;-66
2022/04/05 02:21:33;;;;;;;5.35;2.88;;;11.80;99.90;;;;;;5032185;28;20499;-67
2022/04/05 02:23:59;;;;;;;4.25;2.25;;;11.80;99.90;;;;;;5031505;28;20050;-66
2022/04/05 02:26:26;;;;;;;4.75;2.42;;;11.80;99.90;;;;;;5041049;28;20064;-69
2022/04/05 02:28:53;;;;;;;3.17;1.90;;;11.80;99.90;;;;;;5034647;28;20038;-66
2022/04/05 02:31:20;;;;;;;2.80;1.85;;;11.80;99.90;;;;;;5026857;28;20053;-67
2022/04/05 02:33:47;;;;;;;3.05;2.10;;;11.80;99.90;;;;;;5032594;28;20107;-67
2022/04/05 02:36:14;;;;;;;4.90;2.30;;;11.80;99.90;;;;;;5047729;28;20041;-66
2022/04/05 02:38:41;;;;;;;2.95;2.05;;;11.80;99.90;;;;;;5047717;28;20059;-66
2022/04/05 02:41:08;;;;;;;4.68;1.80;;;11.80;99.90;;;;;;5019879;28;20145;-67
2022/04/05 02:43:35;;;;;;;5.95;2.10;;;11.80;99.90;;;;;;5038715;28;20503;-67
2022/04/05 02:46:03;;;;;;;3.33;1.70;;;11.80;99.90;;;;;;5049291;28;20049;-67
2022/04/05 02:48:30;;;;;;;3.58;1.90;;;11.80;99.90;;;;;;5021108;28;20049;-67
2022/04/05 02:50:57;;;;;;;2.50;2.00;;;11.80;99.90;;;;;;5033089;28;20049;-67
2022/04/05 02:53:24;;;;;;;2.55;1.90;;;11.80;99.90;;;;;;5016645;28;20432;-66
2022/04/05 02:55:52;;;;;;;4.78;2.67;;;11.80;99.90;;;;;;5030956;28;20041;-67
2022/04/05 02:58:19;;;;;;;3.28;2.13;;;11.80;99.90;;;;;;5043281;28;20045;-67
2022/04/05 03:00:46;;;;;;;3.00;2.00;;;11.80;99.90;;;;;;5019222;28;20049;-66
2022/04/05 03:03:13;;;;;;;3.42;2.22;;;11.80;99.90;;;;;;5025942;28;20124;-66
2022/04/05 03:05:40;;;;;;;3.33;2.45;;;11.80;99.90;;;;;;5013697;28;20420;-66
2022/04/05 03:08:07;;;;;;;3.38;2.03;;;11.80;99.90;;;;;;5033864;28;20082;-67
2022/04/05 03:10:34;;;;;;;3.88;2.00;;;11.80;99.90;;;;;;5031546;28;20611;-67
2022/04/05 03:13:01;;;;;;;2.38;1.98;;;11.80;99.90;;;;;;5058227;28;20136;-67
2022/04/05 03:15:28;;;;;;;2.35;1.95;;;11.80;99.90;;;;;;5027378;28;20053;-67
2022/04/05 03:17:55;;;;;;;3.00;2.17;;;11.80;99.90;;;;;;5030941;28;20053;-68
2022/04/05 03:20:22;;;;;;;2.88;2.00;;;11.80;99.90;;;;;;5031629;28;20045;-67
2022/04/05 03:22:49;;;;;;;5.57;2.38;;;11.70;99.90;;;;;;5032908;28;20045;-67
2022/04/05 03:25:16;;;;;;;4.07;1.90;;;11.80;99.90;;;;;;5030609;28;20055;-68
2022/04/05 03:27:43;;;;;;;2.92;2.13;;;11.70;99.90;;;;;;5031859;28;20061;-67
2022/04/05 03:30:12;;;;;;;5.07;2.30;;;11.70;99.90;;;;;;5032315;28;20056;-69
2022/04/05 03:32:39;;;;;;;4.18;2.42;;;11.70;99.90;;;;;;5033605;28;20051;-66
2022/04/05 03:35:07;;;;;;;6.50;3.10;;;11.70;99.90;;;;;;5042803;28;20049;-67
2022/04/05 03:37:34;;;;;;;3.33;2.25;;;11.60;99.90;;;;;;5030307;28;20171;-66
2022/04/05 03:40:01;;;;;;;3.90;2.72;;;11.60;99.90;;;;;;5030249;28;20060;-66
2022/04/05 03:42:28;;;;;;;5.05;2.75;;;11.60;99.90;;;;;;5014260;28;20049;-66
2022/04/05 03:44:57;;;;;;;5.72;2.40;;;11.60;99.90;;;;;;5030378;28;20053;-68
2022/04/05 03:47:26;;;;;;;5.18;2.42;;;11.60;99.90;;;;;;5042464;28;20480;-68
2022/04/05 03:49:53;;;;;;;4.57;3.17;;;11.60;99.90;;;;;;5032141;28;20121;-68
2022/04/05 03:52:20;;;;;;;4.22;2.78;;;11.60;99.90;;;;;;5030397;28;20053;-66
2022/04/05 03:54:47;;;;;;;4.07;2.75;;;11.60;99.90;;;;;;5033501;28;20045;-67
2022/04/05 03:57:14;;;;;;;3.45;2.30;;;11.70;99.90;;;;;;5029742;28;20042;-66
2022/04/05 03:59:41;;;;;;;8.75;3.10;;;11.70;99.90;;;;;;5038824;28;20048;-66
2022/04/05 04:02:08;;;;;;;4.78;2.30;;;11.70;99.90;;;;;;5017739;28;20156;-66
2022/04/05 04:04:35;;;;;;;4.85;2.95;;;11.70;99.90;;;;;;5040178;28;20073;-67
2022/04/05 04:07:02;;;;;;;4.10;2.05;;;11.70;99.90;;;;;;5030850;28;20045;-67
2022/04/05 04:09:29;;;;;;;3.70;2.97;;;11.70;99.90;;;;;;5035340;28;20053;-66
2022/04/05 04:11:56;;;;;;;5.28;2.88;;;11.70;99.90;;;;;;5029818;28;20488;-66
2022/04/05 04:14:23;;;;;;;3.17;1.90;;;11.70;99.90;;;;;;5032019;28;20050;-66
2022/04/05 04:16:50;;;;;;;3.53;2.22;;;11.70;99.90;;;;;;5013790;28;20053;-67
2022/04/05 04:19:17;;;;;;;3.90;2.65;;;11.70;99.90;;;;;;5031325;28;20049;-66
2022/04/05 04:21:44;;;;;;;3.53;2.38;;;11.70;99.90;;;;;;5031176;28;20132;-66
2022/04/05 04:24:11;;;;;;;3.17;2.58;;;11.70;99.90;;;;;;5038432;28;20046;-67
2022/04/05 04:26:38;;;;;;;4.13;2.90;;;11.70;99.90;;;;;;5032381;28;20289;-67
2022/04/05 04:29:05;;;;;;;5.88;3.20;;;11.70;99.90;;;;;;5049398;28;20425;-66
2022/04/05 04:31:32;;;;;;;5.20;3.40;;;11.70;99.90;;;;;;5045547;28;20473;-66
2022/04/05 04:34:00;;;;;;;4.85;3.35;;;11.70;99.90;;;;;;5037227;28;20366;-66
2022/04/05 04:36:28;;;;;;;6.05;3.38;;;11.60;99.90;;;;;;5031137;28;20037;-66
2022/04/05 04:38:55;;;;;;;5.18;2.92;;;11.70;99.90;;;;;;5035501;28;20067;-66
2022/04/05 04:41:22;;;;;;;4.15;3.03;;;11.70;99.90;;;;;;5040888;28;20064;-66
2022/04/05 04:43:50;;;;;;;5.05;3.13;;;11.60;99.90;;;;;;5054594;28;20044;-66
2022/04/05 04:46:17;;;;;;;4.45;3.08;;;11.60;99.90;;;;;;5039787;28;20053;-66
2022/04/05 04:48:44;;;;;;;4.05;3.35;;;11.60;99.90;;;;;;5033806;28;20080;-66
2022/04/05 04:51:12;;;;;;;5.32;3.65;;;11.60;99.90;;;;;;5041225;28;20042;-65
2022/04/05 04:53:39;;;;;;;4.95;3.55;;;11.60;99.90;;;;;;5037312;28;20041;-66
2022/04/05 04:56:06;;;;;;;5.47;4.32;;;11.60;99.90;;;;;;5038911;28;20120;-66
2022/04/05 04:58:36;;;;;;;;;;;11.60;99.90;;;;;;5035541;28;20571;-66
2022/04/05 05:01:03;;;;;;;12.90;4.18;;;11.60;99.90;;;;;;5040854;28;19929;-66
2022/04/05 05:03:33;;;;;;;5.32;3.25;;;11.50;99.90;;;;;;5040872;28;20057;-66
2022/04/05 05:06:00;;;;;;;6.97;4.43;;;11.50;99.90;;;;;;5034458;28;20537;-66
2022/04/05 05:08:27;;;;;;;7.28;5.15;;;11.60;99.90;;;;;;5033794;28;20053;-66
2022/04/05 05:10:54;;;;;;;3.80;3.50;;;11.50;99.90;;;;;;5015966;28;20369;-66
2022/04/05 05:13:21;;;;;;;7.30;3.63;;;11.50;99.90;;;;;;5035551;28;20056;-63
2022/04/05 05:15:49;;;;;;;6.43;3.80;;;11.50;99.90;;;;;;5034041;28;20057;-65
2022/04/05 05:18:16;;;;;;;45.78;36.05;;;11.50;99.90;;;;;;5043520;28;20103;-68
2022/04/05 05:20:43;;;;;;;20.77;15.13;;;11.50;99.90;;;;;;5053761;28;20048;-67
2022/04/05 05:23:10;;;;;;;88.20;60.40;;;11.50;99.90;;;;;;5019629;28;20053;-67
2022/04/05 05:25:38;;;;;;;11.63;8.20;;;11.50;99.90;;;;;;5052432;28;20144;-68
2022/04/05 05:28:05;;;;;;;6.75;4.97;;;11.50;99.90;;;;;;5049366;28;20136;-70
2022/04/05 05:30:32;;;;;;;7.47;4.25;;;11.60;99.90;;;;;;5045450;28;20061;-67
2022/04/05 05:32:59;;;;;;;5.50;4.75;;;11.50;99.90;;;;;;5044847;28;20087;-68
2022/04/05 05:35:26;;;;;;;6.35;4.43;;;11.50;99.90;;;;;;5042108;28;20077;-68
2022/04/05 05:37:56;;;;;;;5.32;4.10;;;11.50;99.90;;;;;;5038825;28;20099;-67
2022/04/05 05:40:23;;;;;;;7.40;4.78;;;11.50;99.90;;;;;;5033003;28;20077;-66
2022/04/05 05:42:58;;;;;;;6.60;4.07;;;11.50;99.90;;;;;;5015386;28;20485;-67
2022/04/05 05:45:26;;;;;;;5.30;4.45;;;11.50;99.90;;;;;;5046074;28;20083;-69
2022/04/05 05:47:53;;;;;;;7.88;4.63;;;11.50;99.90;;;;;;5032315;28;20049;-67
2022/04/05 05:50:20;;;;;;;8.38;4.47;;;11.50;99.90;;;;;;5034090;28;20053;-67
2022/04/05 05:52:47;;;;;;;7.07;4.53;;;11.50;99.90;;;;;;5002574;28;20068;-68
2022/04/05 05:55:15;;;;;;;6.72;5.05;;;11.50;99.90;;;;;;5033542;28;20049;-68
2022/04/05 05:57:42;;;;;;;69.97;46.55;;;11.50;99.90;;;;;;5009338;28;20056;-66
2022/04/05 06:00:11;;;;;;;14.90;9.20;;;11.60;99.90;;;;;;5047907;28;20049;-67
2022/04/05 06:02:39;;;;;;;7.30;5.38;;;11.60;99.90;;;;;;5030406;28;20046;-68
2022/04/05 06:05:06;;;;;;;9.18;5.75;;;11.60;99.90;;;;;;5037518;28;20041;-66
2022/04/05 06:07:41;;;;;;;7.93;5.18;;;11.60;99.90;;;;;;5033126;28;20049;-67
2022/04/05 06:10:11;;;;;;;5.45;4.20;;;11.60;99.90;;;;;;5031245;28;20762;-67
2022/04/05 06:12:41;;;;;;;143.18;112.82;;;11.60;99.90;;;;;;5038469;28;20072;-67
2022/04/05 06:15:10;;;;;;;17.90;14.10;;;11.60;99.90;;;;;;5036665;28;20104;-67
2022/04/05 06:17:37;;;;;;;12.35;7.47;;;11.60;99.90;;;;;;5039936;28;20052;-67
2022/04/05 06:20:05;;;;;;;9.38;6.25;;;11.60;99.90;;;;;;5031667;28;20055;-75
2022/04/05 06:22:44;;;;;;;7.50;5.30;;;11.60;99.90;;;;;;5033892;28;20057;-69
2022/04/05 06:25:12;;;;;;;10.50;5.95;;;11.60;99.90;;;;;;5033281;28;20049;-66
2022/04/05 06:27:39;;;;;;;7.40;4.82;;;11.60;99.90;;;;;;5035076;28;20065;-66
2022/04/05 06:30:06;;;;;;;7.55;4.80;;;11.60;99.90;;;;;;5016131;28;20434;-64
2022/04/05 06:32:33;;;;;;;7.07;4.93;;;11.60;99.90;;;;;;5020728;28;20435;-65
2022/04/05 06:35:01;;;;;;;10.25;5.60;;;11.60;99.90;;;;;;5026881;28;20041;-66
2022/04/05 06:37:28;;;;;;;5.72;4.50;;;11.70;99.90;;;;;;5016128;28;20140;-68
2022/04/05 06:39:55;;;;;;;9.57;4.90;;;11.70;99.90;;;;;;5040140;28;20049;-66
2022/04/05 06:42:22;;;;;;;7.13;5.00;;;11.70;99.90;;;;;;5006677;28;20053;-68
2022/04/05 06:44:49;;;;;;;6.07;5.13;;;11.70;99.90;;;;;;5033530;28;20072;-68
2022/04/05 06:47:16;;;;;;;6.38;5.28;;;11.70;99.90;;;;;;5028214;28;20489;-68
2022/04/05 06:49:43;;;;;;;5.35;4.85;;;11.70;99.90;;;;;;5032419;28;20046;-67
2022/04/05 06:52:10;;;;;;;8.18;4.80;;;11.80;99.90;;;;;;5025231;28;20489;-67
2022/04/05 06:54:37;;;;;;;6.18;4.18;;;11.80;99.90;;;;;;5010867;28;20046;-66
2022/04/05 06:57:04;;;;;;;6.43;4.07;;;11.80;99.90;;;;;;5033033;28;20049;-65
2022/04/05 06:59:31;;;;;;;7.97;4.63;;;11.80;99.90;;;;;;5006575;28;20049;-66
2022/04/05 07:01:58;;;;;;;7.20;5.03;;;11.90;99.90;;;;;;5031148;28;20530;-66
2022/04/05 07:04:25;;;;;;;6.93;4.60;;;12.00;99.90;;;;;;5032473;28;20053;-67
2022/04/05 07:06:52;;;;;;;7.53;4.90;;;12.00;99.90;;;;;;5016779;28;20049;-66
2022/04/05 07:09:19;;;;;;;8.32;4.15;;;12.00;99.90;;;;;;5033814;28;20048;-67
2022/04/05 07:11:46;;;;;;;7.32;4.35;;;12.10;99.90;;;;;;5032745;28;20073;-69
2022/04/05 07:14:13;;;;;;;6.32;4.50;;;12.10;99.90;;;;;;5045830;28;20041;-64
2022/04/05 07:16:40;;;;;;;6.80;4.30;;;12.10;99.90;;;;;;5043345;28;20060;-65
2022/04/05 07:19:07;;;;;;;14.55;12.50;;;12.20;99.90;;;;;;5038833;28;20053;-64
2022/04/05 07:21:34;;;;;;;19.75;15.32;;;12.20;99.90;;;;;;5025490;28;20497;-64
2022/04/05 07:24:01;;;;;;;12.90;6.40;;;12.20;99.90;;;;;;5042609;28;20493;-64
2022/04/05 07:26:28;;;;;;;10.45;4.78;;;12.20;99.90;;;;;;5034438;28;20072;-64
2022/04/05 07:28:55;;;;;;;6.97;4.55;;;12.30;99.90;;;;;;5039094;28;20057;-64
2022/04/05 07:31:26;;;;;;;10.98;5.28;;;12.30;99.90;;;;;;5024816;28;20396;-67
2022/04/05 07:33:53;;;;;;;109.95;83.25;;;12.30;99.90;;;;;;5037636;28;20473;-67
2022/04/05 07:36:20;;;;;;;24.48;20.17;;;12.30;99.90;;;;;;5038998;28;20057;-66
2022/04/05 07:38:47;;;;;;;26.02;17.90;;;12.40;99.90;;;;;;5027862;28;20095;-67
2022/04/05 07:41:14;;;;;;;9.18;6.80;;;12.40;99.90;;;;;;5041957;28;20103;-67
2022/04/05 07:43:41;;;;;;;6.05;5.45;;;12.50;99.90;;;;;;5038916;28;20136;-69
2022/04/05 07:46:10;;;;;;;7.30;4.97;;;12.50;99.90;;;;;;5040301;28;20041;-66
2022/04/05 07:48:37;;;;;;;7.80;5.00;;;12.50;99.90;;;;;;5027602;28;20045;-68
2022/04/05 07:51:04;;;;;;;7.28;5.40;;;12.50;99.90;;;;;;5030499;28;20049;-68
2022/04/05 07:53:31;;;;;;;7.75;5.20;;;12.50;99.90;;;;;;5029719;28;20076;-67
2022/04/05 07:55:58;;;;;;;10.65;5.22;;;12.50;99.90;;;;;;5033038;28;20053;-65
2022/04/05 07:58:25;;;;;;;6.78;4.82;;;12.50;99.90;;;;;;5034711;28;20042;-65
2022/04/05 08:00:53;;;;;;;9.77;5.38;;;12.60;99.90;;;;;;5033875;28;20049;-63
2022/04/05 08:03:22;;;;;;;8.38;5.22;;;12.60;99.90;;;;;;5034607;28;20053;-67
2022/04/05 08:05:49;;;;;;;110.65;86.93;;;12.60;99.90;;;;;;5044204;28;20488;-66
2022/04/05 08:08:16;;;;;;;14.20;9.35;;;12.70;99.90;;;;;;5047339;28;20408;-67
2022/04/05 08:11:03;;;;;;;9.75;6.35;;;12.80;99.90;;;;;;5035664;28;20049;-69
2022/04/05 08:13:30;;;;;;;8.98;5.28;;;12.70;99.90;;;;;;5038743;28;20049;-65
2022/04/05 08:15:57;;;;;;;8.52;4.85;;;12.70;99.90;;;;;;5036015;28;20053;-65
2022/04/05 08:18:25;;;;;;;7.78;4.60;;;12.70;99.90;;;;;;5035649;28;20504;-65
2022/04/05 08:20:52;;;;;;;6.55;4.43;;;12.80;99.90;;;;;;5034647;28;20489;-65
2022/04/05 08:23:19;;;;;;;9.48;4.63;;;12.80;99.90;;;;;;5035608;28;20049;-66
2022/04/05 08:25:46;;;;;;;7.82;4.40;;;12.80;99.90;;;;;;5033768;28;20048;-66
2022/04/05 08:28:13;;;;;;;7.68;4.35;;;12.90;99.90;;;;;;5023642;28;20045;-67
2022/04/05 08:30:40;;;;;;;6.75;3.90;;;12.90;99.90;;;;;;5037809;28;20060;-65
2022/04/05 08:33:07;;;;;;;9.70;3.97;;;12.90;99.90;;;;;;5043911;28;20416;-65
2022/04/05 08:35:34;;;;;;;5.53;4.20;;;12.90;99.90;;;;;;5043147;28;20120;-65
2022/04/05 08:38:01;;;;;;;7.90;4.43;;;13.00;99.90;;;;;;5046545;28;20049;-72
2022/04/05 08:40:28;;;;;;;7.05;4.10;;;13.10;99.90;;;;;;5026612;28;20037;-68
2022/04/05 08:42:56;;;;;;;6.38;3.92;;;13.10;99.90;;;;;;5040260;28;20050;-69
2022/04/05 08:45:23;;;;;;;7.75;4.28;;;13.10;99.90;;;;;;5023231;28;20051;-69
2022/04/05 08:47:58;;;;;;;8.82;3.80;;;13.10;99.90;;;;;;5023409;28;20049;-70
2022/04/05 08:50:29;;;;;;;6.90;3.65;;;13.20;99.90;;;;;;5043932;28;20053;-69
2022/04/05 08:52:59;;;;;;;9.32;3.20;;;13.20;99.90;;;;;;5029392;28;20381;-69
2022/04/05 08:55:35;;;;;;;7.72;3.50;;;13.20;99.90;;;;;;5045771;28;20124;-66
2022/04/05 08:58:03;;;;;;;6.57;3.17;;;13.20;99.90;;;;;;5009004;28;20114;-67
2022/04/05 09:00:30;;;;;;;4.63;2.90;;;13.30;99.90;;;;;;5049326;28;20048;-69
2022/04/05 09:02:59;;;;;;;5.82;2.67;;;13.50;99.90;;;;;;5037277;28;20045;-69
2022/04/05 09:05:44;;;;;;;6.63;2.83;;;13.50;99.90;;;;;;5043825;28;20049;-68
2022/04/05 09:08:21;;;;;;;4.65;1.90;;;13.40;99.90;;;;;;5037381;28;20045;-69
2022/04/05 09:10:53;;;;;;;4.65;1.80;;;13.40;99.90;;;;;;5044650;28;20403;-68
2022/04/05 09:13:25;;;;;;;4.75;1.90;;;13.40;99.90;;;;;;5032797;28;20131;-69
2022/04/05 09:15:56;;;;;;;4.93;2.25;;;13.50;99.90;;;;;;5017523;28;20047;-67
2022/04/05 09:18:39;;;;;;;5.13;2.05;;;13.50;99.90;;;;;;5047587;28;20144;-75
2022/04/05 09:21:08;;;;;;;5.32;2.05;;;13.50;99.90;;;;;;5022896;28;20045;-73
2022/04/05 09:23:41;;;;;;;8.13;2.50;;;13.60;99.90;;;;;;5032049;28;20053;-72
2022/04/05 09:26:15;;;;;;;5.35;2.25;;;13.60;99.90;;;;;;5030506;28;20057;-65
2022/04/05 09:28:47;;;;;;;9.45;2.45;;;13.60;99.90;;;;;;5019903;28;20047;-76
2022/04/05 09:31:19;;;;;;;7.22;2.80;;;13.60;99.90;;;;;;5037246;28;20406;-73
2022/04/05 09:34:01;;;;;;;8.63;3.58;;;13.60;99.90;;;;;;5024419;28;20128;-64
2022/04/05 09:36:42;;;;;;;6.65;3.15;;;13.60;99.90;;;;;;5035421;28;20049;-70
2022/04/05 09:39:30;;;;;;;6.32;2.47;;;13.70;99.90;;;;;;5032167;28;20523;-68
2022/04/05 09:42:00;;;;;;;3.53;2.47;;;13.70;99.90;;;;;;5036237;28;20053;-67
2022/04/05 09:44:32;;;;;;;5.80;3.30;;;13.80;99.90;;;;;;5032526;28;20139;-69
2022/04/05 09:47:10;;;;;;;6.20;3.65;;;13.80;99.90;;;;;;5039193;28;20045;-67
2022/04/05 09:49:39;;;;;;;6.77;3.67;;;13.90;99.90;;;;;;5017299;28;20049;-70
2022/04/05 09:52:25;;;;;;;5.57;2.85;;;14.00;99.90;;;;;;5038053;28;20297;-69
2022/04/05 09:54:53;;;;;;;6.55;3.30;;;14.10;99.90;;;;;;5032302;28;20072;-75
2022/04/05 09:57:28;;;;;;;3.95;2.60;;;14.10;99.90;;;;;;5038470;28;20403;-74
2022/04/05 10:00:06;;;;;;;6.93;2.78;;;14.20;99.90;;;;;;5032579;28;20055;-70
2022/04/05 10:02:34;;;;;;;6.45;2.80;;;14.20;99.90;;;;;;5034514;28;20129;-73
2022/04/05 10:05:07;;;;;;;9.48;3.72;;;14.30;99.90;;;;;;5000737;28;20053;-74
2022/04/05 10:07:35;;;;;;;8.15;2.70;;;14.30;99.90;;;;;;5035630;28;20057;-66
2022/04/05 10:10:06;;;;;;;9.35;2.80;;;14.40;99.90;;;;;;5046457;28;20103;-71
2022/04/05 10:12:33;;;;;;;5.97;2.05;;;14.50;99.90;;;;;;5033419;28;20056;-66
2022/04/05 10:15:00;;;;;;;6.13;2.60;;;14.60;99.90;;;;;;5039757;28;20087;-68
2022/04/05 10:17:28;;;;;;;7.13;2.80;;;14.80;99.90;;;;;;5003526;28;20143;-68
2022/04/05 10:19:58;;;;;;;5.38;2.40;;;14.90;99.90;;;;;;5013318;28;20409;-68
2022/04/05 10:22:26;;;;;;;11.18;2.60;;;14.90;99.90;;;;;;5031864;28;20052;-68
2022/04/05 10:24:53;;;;;;;7.97;3.13;;;15.10;99.90;;;;;;5032662;28;20049;-69
2022/04/05 10:27:21;;;;;;;7.18;2.75;;;15.10;99.90;;;;;;5031435;28;20063;-69
2022/04/05 10:30:00;;;;;;;9.32;3.38;;;15.10;99.90;;;;;;5026132;28;20055;-65
2022/04/05 10:32:52;;;;;;;6.55;2.83;;;15.00;99.90;;;;;;5037214;28;20171;-67
2022/04/05 10:35:22;;;;;;;7.43;3.22;;;15.00;99.90;;;;;;5044997;28;20436;-67
2022/04/05 10:37:49;;;;;;;5.45;3.10;;;15.00;99.90;;;;;;5033836;28;20507;-64
2022/04/05 10:40:19;;;;;;;6.47;2.80;;;15.10;99.90;;;;;;5027518;28;20127;-66
2022/04/05 10:42:46;;;;;;;5.15;2.80;;;15.10;99.90;;;;;;5030105;28;20508;-67
2022/04/05 10:45:25;;;;;;;6.43;2.88;;;15.20;99.90;;;;;;5035283;28;20052;-69
2022/04/05 10:48:01;;;;;;;6.30;2.75;;;15.40;99.90;;;;;;5030320;28;20041;-69
2022/04/05 10:51:09;;;;;;;8.52;2.85;;;15.50;99.90;;;;;;5018664;28;20052;-63
2022/04/05 10:53:37;;;;;;;5.78;2.50;;;15.60;99.90;;;;;;5015119;28;20075;-66
2022/04/05 10:56:04;;;;;;;6.80;3.13;;;15.50;99.90;;;;;;5030857;28;20120;-71
2022/04/05 10:58:35;;;;;;;6.30;2.88;;;15.50;99.90;;;;;;5030762;28;20057;-68
2022/04/05 11:01:15;;;;;;;4.88;3.22;;;15.50;99.90;;;;;;5019670;28;20164;-71
2022/04/05 11:03:45;;;;;;;9.43;3.40;;;15.60;99.90;;;;;;5034694;28;20057;-70
2022/04/05 11:06:12;;;;;;;8.15;3.55;;;15.60;99.90;;;;;;5017571;28;20080;-67
2022/04/05 11:08:39;;;;;;;6.60;2.97;;;15.60;99.90;;;;;;5040944;28;20172;-67
2022/04/05 11:11:08;;;;;;;67.07;54.17;;;15.70;99.90;;;;;;5034335;28;20049;-67
2022/04/05 11:13:46;;;;;;;13.48;8.63;;;15.70;99.90;;;;;;5014892;28;20055;-77
2022/04/05 11:16:14;;;;;;;10.25;4.13;;;15.70;97.80;;;;;;5028579;28;20078;-70
2022/04/05 11:18:41;;;;;;;8.85;4.50;;;15.70;98.60;;;;;;5013646;28;20485;-67
2022/04/05 11:21:08;;;;;;;6.65;3.22;;;15.60;98.90;;;;;;5031905;28;20405;-73
2022/04/05 11:23:49;;;;;;;7.47;3.15;;;15.60;99.40;;;;;;5021903;28;20053;-70
2022/04/05 11:26:28;;;;;;;8.55;3.58;;;15.50;97.20;;;;;;5035652;28;20053;-69
2022/04/05 11:28:56;;;;;;;10.90;3.95;;;15.40;99.90;;;;;;5039992;28;20412;-74
2022/04/05 11:31:35;;;;;;;8.73;3.53;;;15.30;99.90;;;;;;5034252;28;20068;-70
2022/04/05 11:34:03;;;;;;;8.48;4.20;;;15.20;98.90;;;;;;5019709;28;20461;-70
2022/04/05 11:36:30;;;;;;;9.23;4.43;;;15.20;99.90;;;;;;5034583;28;20057;-75
2022/04/05 11:38:58;;;;;;;8.30;3.70;;;15.10;99.90;;;;;;5032073;28;20401;-73
2022/04/05 11:41:27;;;;;;;7.47;3.78;;;15.00;99.90;;;;;;5045195;28;20131;-74
2022/04/05 11:43:58;;;;;;;9.52;5.55;;;15.00;99.90;;;;;;5040324;28;20057;-66
2022/04/05 11:46:30;;;;;;;9.35;3.95;;;15.10;99.90;;;;;;5044862;28;20053;-75
2022/04/05 11:49:02;;;;;;;8.02;3.97;;;15.20;99.40;;;;;;5040294;28;20042;-65
2022/04/05 11:51:32;;;;;;;9.00;4.40;;;15.30;99.90;;;;;;5046048;28;20090;-73
2022/04/05 11:54:10;;;;;;;8.25;3.20;;;15.40;99.30;;;;;;5044012;28;20040;-76
2022/04/05 11:56:40;;;;;;;8.38;4.22;;;15.40;96.40;;;;;;5022718;28;20049;-77
2022/04/05 11:59:08;;;;;;;9.10;3.35;;;15.40;98.40;;;;;;5021245;28;20049;-76
2022/04/05 12:01:37;;;;;;;6.82;2.80;;;15.40;97.60;;;;;;5018791;28;20099;-76
2022/04/05 12:04:12;;;;;;;9.25;4.05;;;15.30;97.20;;;;;;5038163;28;20045;-76
2022/04/05 12:06:43;;;;;;;8.85;3.35;;;15.30;96.90;;;;;;5046952;28;20099;-75
2022/04/05 12:09:17;;;;;;;6.80;3.50;;;15.40;97.70;;;;;;5020789;28;20045;-75
2022/04/05 12:11:48;;;;;;;12.45;4.22;;;15.50;98.50;;;;;;5040695;28;20052;-74
2022/04/05 12:14:16;;;;;;;7.35;3.38;;;15.70;98.20;;;;;;5019133;28;20046;-77
2022/04/05 12:16:49;;;;;;;9.98;3.25;;;15.80;97.40;;;;;;5012107;28;20049;-73
2022/04/05 12:19:22;;;;;;;46.83;33.45;;;15.80;97.70;;;;;;5043480;28;20053;-68
2022/04/05 12:21:53;;;;;;;10.35;5.38;;;15.80;95.40;;;;;;5037601;28;20045;-73
2022/04/05 12:24:21;;;;;;;9.98;4.15;;;15.70;96.30;;;;;;5040790;28;20081;-70
2022/04/05 12:26:48;;;;;;;8.20;3.72;;;15.60;96.50;;;;;;5007444;28;20045;-67
2022/04/05 12:29:15;;;;;;;8.32;3.15;;;15.50;96.20;;;;;;5021612;28;20044;-71
2022/04/05 12:31:42;;;;;;;9.48;3.50;;;15.40;96.60;;;;;;5023845;28;20061;-71
2022/04/05 12:34:11;;;;;;;6.05;3.28;;;15.30;96.10;;;;;;5040192;28;20765;-67
2022/04/05 12:36:43;;;;;;;8.77;3.85;;;15.40;95.40;;;;;;5017629;28;20049;-68
2022/04/05 12:39:21;;;;;;;12.18;4.47;;;15.40;97.70;;;;;;5016030;28;20413;-69
2022/04/05 12:41:53;;;;;;;10.60;3.95;;;15.30;96.60;;;;;;5020564;28;20061;-68
2022/04/05 12:44:22;;;;;;;9.63;4.55;;;15.10;95.90;;;;;;5044796;28;20065;-68
2022/04/05 12:46:50;;;;;;;9.40;3.38;;;15.00;97.10;;;;;;5032318;28;20136;-68
2022/04/05 12:49:31;;;;;;;36.20;23.55;;;14.90;97.90;;;;;;5011168;28;20042;-69
2022/04/05 12:52:26;;;;;;;19.23;8.40;;;15.10;99.90;;;;;;5030567;28;20408;-67
2022/04/05 12:55:04;;;;;;;11.60;5.18;;;15.20;96.80;;;;;;5047936;28;20061;-66